Naracoorte, Australia
Current Conditions -  °F | °C
As of 4:00 PM on Sunday 21 Dec 2014 (Local Time) from YMTG Reporting Station
Clear Clear  
Wind Chill: 75°   Ceiling: Unl
Heat Index: 75°   Visibility: 6mi
Dew Point: 50°   Wind: 15mph
Humidity: 41%   Direction: 190°S
Pressure: 29.88"   Gusts: NA
Location:  36.96°S, 140.74°E
Report Text: YMTG 210600Z AUTO 19013KT 9999 // NCD 24/10 Q1012
Loading
Personal Weather Stations






























Interactive Weather Map New forecast layout! Learn more

10-Day Weather Forecast

Advertisements
Track Severe Weather on mobile